sensor_id;sensor_type;location;lat;lon;timestamp;temperature;humidity
10143;DHT22;5112;54.088;13.446;2024-01-07T00:05:12;0.40;99.90
10143;DHT22;5112;54.088;13.446;2024-01-07T00:15:15;0.40;99.90
10143;DHT22;5112;54.088;13.446;2024-01-07T00:25:17;0.50;99.90
10143;DHT22;5112;54.088;13.446;2024-01-07T00:35:20;0.40;99.90
10143;DHT22;5112;54.088;13.446;2024-01-07T00:45:22;0.40;99.90
10143;DHT22;5112;54.088;13.446;2024-01-07T00:55:25;0.40;99.90
10143;DHT22;5112;54.088;13.446;2024-01-07T01:05:26;0.40;99.90
10143;DHT22;5112;54.088;13.446;2024-01-07T01:15:29;0.30;99.90
10143;DHT22;5112;54.088;13.446;2024-01-07T01:25:31;0.20;99.90
10143;DHT22;5112;54.088;13.446;2024-01-07T01:35:34;0.30;99.90
10143;DHT22;5112;54.088;13.446;2024-01-07T01:45:36;0.90;99.90
10143;DHT22;5112;54.088;13.446;2024-01-07T01:55:39;1.50;99.90
10143;DHT22;5112;54.088;13.446;2024-01-07T02:05:41;1.60;99.90
10143;DHT22;5112;54.088;13.446;2024-01-07T02:15:44;1.60;99.90
10143;DHT22;5112;54.088;13.446;2024-01-07T02:25:47;1.70;99.90
10143;DHT22;5112;54.088;13.446;2024-01-07T02:35:49;1.70;99.90
10143;DHT22;5112;54.088;13.446;2024-01-07T02:45:52;1.70;99.90
10143;DHT22;5112;54.088;13.446;2024-01-07T02:55:53;1.80;99.90
10143;DHT22;5112;54.088;13.446;2024-01-07T03:05:57;1.70;99.90
10143;DHT22;5112;54.088;13.446;2024-01-07T03:15:58;1.60;99.90
10143;DHT22;5112;54.088;13.446;2024-01-07T03:26:01;1.60;99.90
10143;DHT22;5112;54.088;13.446;2024-01-07T03:36:07;1.60;99.90
10143;DHT22;5112;54.088;13.446;2024-01-07T03:46:10;1.60;99.90
10143;DHT22;5112;54.088;13.446;2024-01-07T03:56:11;1.60;99.90
10143;DHT22;5112;54.088;13.446;2024-01-07T04:06:15;1.50;99.90
10143;DHT22;5112;54.088;13.446;2024-01-07T04:16:17;1.60;99.90
10143;DHT22;5112;54.088;13.446;2024-01-07T04:26:20;1.60;99.90
10143;DHT22;5112;54.088;13.446;2024-01-07T04:36:22;1.50;99.90
10143;DHT22;5112;54.088;13.446;2024-01-07T04:46:28;1.60;99.90
10143;DHT22;5112;54.088;13.446;2024-01-07T04:56:29;1.50;99.90
10143;DHT22;5112;54.088;13.446;2024-01-07T05:06:32;1.50;99.90
10143;DHT22;5112;54.088;13.446;2024-01-07T05:16:34;1.50;99.90
10143;DHT22;5112;54.088;13.446;2024-01-07T05:26:39;1.50;99.90
10143;DHT22;5112;54.088;13.446;2024-01-07T05:36:41;1.50;99.90
10143;DHT22;5112;54.088;13.446;2024-01-07T05:46:44;1.50;99.90
10143;DHT22;5112;54.088;13.446;2024-01-07T05:56:45;1.50;99.90
10143;DHT22;5112;54.088;13.446;2024-01-07T06:06:48;1.50;99.90
10143;DHT22;5112;54.088;13.446;2024-01-07T06:16:50;1.50;99.90
10143;DHT22;5112;54.088;13.446;2024-01-07T06:26:54;1.40;99.90
10143;DHT22;5112;54.088;13.446;2024-01-07T06:36:55;1.40;99.90
10143;DHT22;5112;54.088;13.446;2024-01-07T06:46:58;1.20;99.90
10143;DHT22;5112;54.088;13.446;2024-01-07T06:57:00;1.20;99.90
10143;DHT22;5112;54.088;13.446;2024-01-07T07:07:04;1.20;99.90
10143;DHT22;5112;54.088;13.446;2024-01-07T07:17:05;1.10;99.90
10143;DHT22;5112;54.088;13.446;2024-01-07T07:27:08;1.10;99.90
10143;DHT22;5112;54.088;13.446;2024-01-07T07:37:10;1.00;99.90
10143;DHT22;5112;54.088;13.446;2024-01-07T07:47:13;1.00;99.90
10143;DHT22;5112;54.088;13.446;2024-01-07T07:57:15;1.10;99.90
10143;DHT22;5112;54.088;13.446;2024-01-07T08:07:17;1.00;99.90
10143;DHT22;5112;54.088;13.446;2024-01-07T08:17:19;1.10;99.90
10143;DHT22;5112;54.088;13.446;2024-01-07T08:27:22;1.00;99.90
10143;DHT22;5112;54.088;13.446;2024-01-07T08:37:24;0.90;99.90
10143;DHT22;5112;54.088;13.446;2024-01-07T08:47:27;0.80;99.90
10143;DHT22;5112;54.088;13.446;2024-01-07T08:57:28;0.90;99.90
10143;DHT22;5112;54.088;13.446;2024-01-07T09:07:31;0.90;99.90
10143;DHT22;5112;54.088;13.446;2024-01-07T09:17:34;0.90;99.90
10143;DHT22;5112;54.088;13.446;2024-01-07T09:27:37;0.90;99.90
10143;DHT22;5112;54.088;13.446;2024-01-07T09:37:39;0.90;99.90
10143;DHT22;5112;54.088;13.446;2024-01-07T09:47:42;1.00;99.90
10143;DHT22;5112;54.088;13.446;2024-01-07T09:57:46;1.10;99.90
10143;DHT22;5112;54.088;13.446;2024-01-07T10:07:49;1.10;99.90
10143;DHT22;5112;54.088;13.446;2024-01-07T10:17:54;1.30;99.90
10143;DHT22;5112;54.088;13.446;2024-01-07T10:28:00;1.20;99.90
10143;DHT22;5112;54.088;13.446;2024-01-07T10:38:03;1.00;99.90
10143;DHT22;5112;54.088;13.446;2024-01-07T10:48:08;0.80;99.90
10143;DHT22;5112;54.088;13.446;2024-01-07T10:58:11;1.00;99.90
10143;DHT22;5112;54.088;13.446;2024-01-07T11:08:21;1.00;99.90
10143;DHT22;5112;54.088;13.446;2024-01-07T11:18:26;1.10;99.90
10143;DHT22;5112;54.088;13.446;2024-01-07T11:28:45;1.30;99.90
10143;DHT22;5112;54.088;13.446;2024-01-07T11:38:48;1.30;99.90
10143;DHT22;5112;54.088;13.446;2024-01-07T11:48:54;1.40;99.90
10143;DHT22;5112;54.088;13.446;2024-01-07T11:58:59;1.20;99.90
10143;DHT22;5112;54.088;13.446;2024-01-07T12:09:02;0.90;99.90
10143;DHT22;5112;54.088;13.446;2024-01-07T12:19:04;0.90;99.90
10143;DHT22;5112;54.088;13.446;2024-01-07T12:29:07;0.80;99.90
10143;DHT22;5112;54.088;13.446;2024-01-07T12:39:10;0.60;99.90
10143;DHT22;5112;54.088;13.446;2024-01-07T12:49:13;0.70;99.90
10143;DHT22;5112;54.088;13.446;2024-01-07T12:59:15;0.80;99.90
10143;DHT22;5112;54.088;13.446;2024-01-07T13:09:18;0.80;99.90
10143;DHT22;5112;54.088;13.446;2024-01-07T13:19:20;0.80;99.90
10143;DHT22;5112;54.088;13.446;2024-01-07T13:29:23;0.70;99.90
10143;DHT22;5112;54.088;13.446;2024-01-07T13:39:25;0.50;99.90
10143;DHT22;5112;54.088;13.446;2024-01-07T13:49:28;0.40;99.90
10143;DHT22;5112;54.088;13.446;2024-01-07T13:59:29;0.40;99.90
10143;DHT22;5112;54.088;13.446;2024-01-07T14:09:32;0.30;99.90
10143;DHT22;5112;54.088;13.446;2024-01-07T14:19:34;0.60;99.90
10143;DHT22;5112;54.088;13.446;2024-01-07T14:29:37;0.70;99.90
10143;DHT22;5112;54.088;13.446;2024-01-07T14:39:39;0.60;99.90
10143;DHT22;5112;54.088;13.446;2024-01-07T14:49:42;0.60;99.90
10143;DHT22;5112;54.088;13.446;2024-01-07T14:59:43;0.60;99.90
10143;DHT22;5112;54.088;13.446;2024-01-07T15:09:46;0.50;99.90
10143;DHT22;5112;54.088;13.446;2024-01-07T15:19:48;0.60;99.90
10143;DHT22;5112;54.088;13.446;2024-01-07T15:29:51;0.50;99.90
10143;DHT22;5112;54.088;13.446;2024-01-07T15:39:53;0.40;99.90
10143;DHT22;5112;54.088;13.446;2024-01-07T15:49:56;0.50;99.90
10143;DHT22;5112;54.088;13.446;2024-01-07T15:59:58;0.50;99.90
10143;DHT22;5112;54.088;13.446;2024-01-07T16:10:01;0.50;99.90
10143;DHT22;5112;54.088;13.446;2024-01-07T16:20:03;0.70;99.90
10143;DHT22;5112;54.088;13.446;2024-01-07T16:30:07;0.70;99.90
10143;DHT22;5112;54.088;13.446;2024-01-07T16:40:10;0.70;99.90
10143;DHT22;5112;54.088;13.446;2024-01-07T16:50:14;0.60;99.90
10143;DHT22;5112;54.088;13.446;2024-01-07T17:00:17;0.50;99.90
10143;DHT22;5112;54.088;13.446;2024-01-07T17:10:21;0.50;99.90
10143;DHT22;5112;54.088;13.446;2024-01-07T17:20:22;0.50;99.90
10143;DHT22;5112;54.088;13.446;2024-01-07T17:30:27;0.50;99.90
10143;DHT22;5112;54.088;13.446;2024-01-07T17:40:29;0.50;99.90
10143;DHT22;5112;54.088;13.446;2024-01-07T17:50:33;0.40;99.90
10143;DHT22;5112;54.088;13.446;2024-01-07T18:00:35;0.30;99.90
10143;DHT22;5112;54.088;13.446;2024-01-07T18:10:38;0.30;99.90
10143;DHT22;5112;54.088;13.446;2024-01-07T18:20:39;0.30;99.90
10143;DHT22;5112;54.088;13.446;2024-01-07T18:30:42;0.30;99.90
10143;DHT22;5112;54.088;13.446;2024-01-07T18:40:44;0.20;99.90
10143;DHT22;5112;54.088;13.446;2024-01-07T18:50:47;0.30;99.90
10143;DHT22;5112;54.088;13.446;2024-01-07T19:00:49;0.30;99.90
10143;DHT22;5112;54.088;13.446;2024-01-07T19:10:52;0.30;99.90
10143;DHT22;5112;54.088;13.446;2024-01-07T19:20:53;0.40;99.90
10143;DHT22;5112;54.088;13.446;2024-01-07T19:30:56;0.20;99.90
10143;DHT22;5112;54.088;13.446;2024-01-07T19:40:58;0.20;99.90
10143;DHT22;5112;54.088;13.446;2024-01-07T19:51:01;0.30;99.90
10143;DHT22;5112;54.088;13.446;2024-01-07T20:01:03;0.30;99.90
10143;DHT22;5112;54.088;13.446;2024-01-07T20:11:06;0.30;99.90
10143;DHT22;5112;54.088;13.446;2024-01-07T20:21:17;0.30;99.90
10143;DHT22;5112;54.088;13.446;2024-01-07T20:31:21;0.20;99.90
10143;DHT22;5112;54.088;13.446;2024-01-07T20:41:22;0.20;99.90
10143;DHT22;5112;54.088;13.446;2024-01-07T20:51:25;0.30;99.90
10143;DHT22;5112;54.088;13.446;2024-01-07T21:01:27;0.40;99.90
10143;DHT22;5112;54.088;13.446;2024-01-07T21:11:32;0.40;99.90
10143;DHT22;5112;54.088;13.446;2024-01-07T21:21:35;0.50;99.90
10143;DHT22;5112;54.088;13.446;2024-01-07T21:31:39;0.00;99.90
10143;DHT22;5112;54.088;13.446;2024-01-07T21:41:41;-0.30;99.90
10143;DHT22;5112;54.088;13.446;2024-01-07T21:51:45;-0.40;99.90
10143;DHT22;5112;54.088;13.446;2024-01-07T22:01:46;-0.50;99.90
10143;DHT22;5112;54.088;13.446;2024-01-07T22:11:50;-0.60;99.90
10143;DHT22;5112;54.088;13.446;2024-01-07T22:21:52;-0.70;99.90
10143;DHT22;5112;54.088;13.446;2024-01-07T22:31:55;-0.80;99.90
10143;DHT22;5112;54.088;13.446;2024-01-07T22:41:56;-0.90;99.90
10143;DHT22;5112;54.088;13.446;2024-01-07T22:52:00;-1.00;99.90
10143;DHT22;5112;54.088;13.446;2024-01-07T23:02:02;-1.00;99.90
10143;DHT22;5112;54.088;13.446;2024-01-07T23:12:06;-1.00;99.90
10143;DHT22;5112;54.088;13.446;2024-01-07T23:22:08;-1.00;99.90
10143;DHT22;5112;54.088;13.446;2024-01-07T23:32:12;-0.90;99.90
10143;DHT22;5112;54.088;13.446;2024-01-07T23:42:14;-0.90;99.90
10143;DHT22;5112;54.088;13.446;2024-01-07T23:52:17;-0.90;99.90
